sensor_id;sensor_type;location;lat;lon;timestamp;pressure;altitude;pressure_sealevel;temperature;humidity
58658;BME280;44428;45.630;13.786;2022-12-07T00:03:40;101172.16;;;6.81;91.90
58658;BME280;44428;45.630;13.786;2022-12-07T00:06:08;101166.91;;;6.81;90.67
58658;BME280;44428;45.630;13.786;2022-12-07T00:08:35;101166.19;;;6.78;91.34
58658;BME280;44428;45.630;13.786;2022-12-07T00:11:07;101167.31;;;6.72;91.83
58658;BME280;44428;45.630;13.786;2022-12-07T00:13:35;101168.31;;;6.70;91.49
58658;BME280;44428;45.630;13.786;2022-12-07T00:16:03;101156.81;;;6.72;90.61
58658;BME280;44428;45.630;13.786;2022-12-07T00:18:30;101160.50;;;6.68;90.40
58658;BME280;44428;45.630;13.786;2022-12-07T00:21:03;101157.53;;;6.57;91.40
58658;BME280;44428;45.630;13.786;2022-12-07T00:23:30;101155.53;;;6.62;90.93
58658;BME280;44428;45.630;13.786;2022-12-07T00:25:56;101157.25;;;6.63;91.09
58658;BME280;44428;45.630;13.786;2022-12-07T00:28:21;101158.66;;;6.70;90.59
58658;BME280;44428;45.630;13.786;2022-12-07T00:30:47;101162.06;;;6.72;89.95
58658;BME280;44428;45.630;13.786;2022-12-07T00:33:13;101165.31;;;6.77;88.91
58658;BME280;44428;45.630;13.786;2022-12-07T00:35:39;101149.69;;;6.74;88.60
58658;BME280;44428;45.630;13.786;2022-12-07T00:38:04;101163.75;;;6.73;88.86
58658;BME280;44428;45.630;13.786;2022-12-07T00:40:30;101152.75;;;6.65;89.29
58658;BME280;44428;45.630;13.786;2022-12-07T00:42:56;101161.06;;;6.56;89.93
58658;BME280;44428;45.630;13.786;2022-12-07T00:45:22;101154.13;;;6.55;89.79
58658;BME280;44428;45.630;13.786;2022-12-07T00:47:47;101163.22;;;6.48;91.04
58658;BME280;44428;45.630;13.786;2022-12-07T00:50:13;101168.75;;;6.41;92.63
58658;BME280;44428;45.630;13.786;2022-12-07T00:52:39;101164.63;;;6.36;93.13
58658;BME280;44428;45.630;13.786;2022-12-07T00:55:05;101168.75;;;6.41;92.38
58658;BME280;44428;45.630;13.786;2022-12-07T00:57:31;101175.56;;;6.46;92.02
58658;BME280;44428;45.630;13.786;2022-12-07T00:59:56;101177.38;;;6.43;91.64
58658;BME280;44428;45.630;13.786;2022-12-07T01:02:23;101180.94;;;6.42;91.61
58658;BME280;44428;45.630;13.786;2022-12-07T01:04:49;101187.88;;;6.43;92.21
58658;BME280;44428;45.630;13.786;2022-12-07T01:07:15;101184.06;;;6.51;90.89
58658;BME280;44428;45.630;13.786;2022-12-07T01:09:40;101188.63;;;6.66;89.44
58658;BME280;44428;45.630;13.786;2022-12-07T01:12:06;101194.16;;;6.60;90.22
58658;BME280;44428;45.630;13.786;2022-12-07T01:14:32;101182.22;;;6.53;90.94
58658;BME280;44428;45.630;13.786;2022-12-07T01:16:58;101189.81;;;6.59;91.38
58658;BME280;44428;45.630;13.786;2022-12-07T01:19:23;101197.97;;;6.53;91.08
58658;BME280;44428;45.630;13.786;2022-12-07T01:21:49;101192.28;;;6.62;90.14
58658;BME280;44428;45.630;13.786;2022-12-07T01:24:15;101189.81;;;6.59;90.26
58658;BME280;44428;45.630;13.786;2022-12-07T01:26:41;101189.25;;;6.71;89.10
58658;BME280;44428;45.630;13.786;2022-12-07T01:29:06;101183.50;;;6.82;87.79
58658;BME280;44428;45.630;13.786;2022-12-07T01:31:32;101177.69;;;6.75;88.29
58658;BME280;44428;45.630;13.786;2022-12-07T01:33:59;101179.22;;;6.79;88.45
58658;BME280;44428;45.630;13.786;2022-12-07T01:36:27;101170.72;;;6.74;88.18
58658;BME280;44428;45.630;13.786;2022-12-07T01:38:56;101168.72;;;6.79;87.70
58658;BME280;44428;45.630;13.786;2022-12-07T01:41:31;101165.16;;;6.80;87.72
58658;BME280;44428;45.630;13.786;2022-12-07T01:44:21;101156.53;;;6.78;87.77
58658;BME280;44428;45.630;13.786;2022-12-07T01:49:42;101159.38;;;6.55;89.46
58658;BME280;44428;45.630;13.786;2022-12-07T01:52:22;101158.09;;;6.45;90.55
58658;BME280;44428;45.630;13.786;2022-12-07T01:54:53;101162.84;;;6.36;91.22
58658;BME280;44428;45.630;13.786;2022-12-07T01:57:20;101165.06;;;6.46;90.70
58658;BME280;44428;45.630;13.786;2022-12-07T01:59:48;101162.72;;;6.39;90.94
58658;BME280;44428;45.630;13.786;2022-12-07T02:02:23;101161.91;;;6.37;91.23
58658;BME280;44428;45.630;13.786;2022-12-07T02:04:53;101159.81;;;6.46;90.70
58658;BME280;44428;45.630;13.786;2022-12-07T02:07:20;101152.84;;;6.45;91.09
58658;BME280;44428;45.630;13.786;2022-12-07T02:09:48;101149.16;;;6.49;90.66
58658;BME280;44428;45.630;13.786;2022-12-07T02:12:13;101142.06;;;6.51;90.44
58658;BME280;44428;45.630;13.786;2022-12-07T02:14:40;101142.22;;;6.48;90.47
58658;BME280;44428;45.630;13.786;2022-12-07T02:17:28;101137.09;;;6.45;90.90
58658;BME280;44428;45.630;13.786;2022-12-07T02:31:23;101132.41;;;6.32;91.71
58658;BME280;44428;45.630;13.786;2022-12-07T02:36:43;101128.44;;;6.42;91.43
58658;BME280;44428;45.630;13.786;2022-12-07T02:39:18;101120.56;;;6.42;91.56
58658;BME280;44428;45.630;13.786;2022-12-07T02:41:56;101120.94;;;6.54;90.29
58658;BME280;44428;45.630;13.786;2022-12-07T02:44:26;101124.31;;;6.56;89.88
58658;BME280;44428;45.630;13.786;2022-12-07T02:47:01;101128.88;;;6.52;89.92
58658;BME280;44428;45.630;13.786;2022-12-07T02:49:28;101127.66;;;6.40;90.36
58658;BME280;44428;45.630;13.786;2022-12-07T02:51:54;101120.06;;;6.34;91.04
58658;BME280;44428;45.630;13.786;2022-12-07T02:54:21;101113.41;;;6.27;91.80
58658;BME280;44428;45.630;13.786;2022-12-07T03:07:51;101109.28;;;6.03;94.66
58658;BME280;44428;45.630;13.786;2022-12-07T03:10:40;101104.03;;;6.03;94.84
58658;BME280;44428;45.630;13.786;2022-12-07T03:13:23;101100.19;;;6.10;94.21
58658;BME280;44428;45.630;13.786;2022-12-07T03:18:51;101096.72;;;6.28;91.78
58658;BME280;44428;45.630;13.786;2022-12-07T03:21:22;101093.69;;;6.37;91.16
58658;BME280;44428;45.630;13.786;2022-12-07T03:23:52;101095.50;;;6.35;90.64
58658;BME280;44428;45.630;13.786;2022-12-07T03:26:19;101088.56;;;6.34;91.25
58658;BME280;44428;45.630;13.786;2022-12-07T03:28:53;101099.06;;;6.34;91.25
58658;BME280;44428;45.630;13.786;2022-12-07T03:31:23;101087.44;;;6.40;90.40
58658;BME280;44428;45.630;13.786;2022-12-07T03:34:39;101096.94;;;6.42;90.21
58658;BME280;44428;45.630;13.786;2022-12-07T03:37:03;101094.75;;;6.33;90.76
58658;BME280;44428;45.630;13.786;2022-12-07T03:55:22;101075.66;;;6.49;89.53
58658;BME280;44428;45.630;13.786;2022-12-07T03:57:52;101080.91;;;6.49;89.04
58658;BME280;44428;45.630;13.786;2022-12-07T04:00:20;101071.94;;;6.53;88.85
58658;BME280;44428;45.630;13.786;2022-12-07T04:02:46;101073.09;;;6.66;87.89
58658;BME280;44428;45.630;13.786;2022-12-07T04:05:12;101072.50;;;6.78;86.76
58658;BME280;44428;45.630;13.786;2022-12-07T04:07:38;101071.59;;;6.97;85.00
58658;BME280;44428;45.630;13.786;2022-12-07T04:10:04;101067.41;;;7.10;84.36
58658;BME280;44428;45.630;13.786;2022-12-07T04:12:30;101067.09;;;7.16;83.68
58658;BME280;44428;45.630;13.786;2022-12-07T04:14:56;101065.72;;;7.09;84.06
58658;BME280;44428;45.630;13.786;2022-12-07T04:17:22;101058.91;;;7.05;84.33
58658;BME280;44428;45.630;13.786;2022-12-07T04:19:48;101064.16;;;7.05;84.10
58658;BME280;44428;45.630;13.786;2022-12-07T04:22:13;101067.72;;;7.04;84.32
58658;BME280;44428;45.630;13.786;2022-12-07T04:24:39;101063.72;;;7.14;83.98
58658;BME280;44428;45.630;13.786;2022-12-07T04:27:05;101059.69;;;7.24;82.81
58658;BME280;44428;45.630;13.786;2022-12-07T04:29:31;101061.22;;;7.28;83.16
58658;BME280;44428;45.630;13.786;2022-12-07T04:31:56;101065.25;;;7.36;82.57
58658;BME280;44428;45.630;13.786;2022-12-07T04:34:22;101067.72;;;7.39;82.12
58658;BME280;44428;45.630;13.786;2022-12-07T04:36:48;101076.03;;;7.47;81.49
58658;BME280;44428;45.630;13.786;2022-12-07T04:39:20;101078.97;;;7.58;81.12
58658;BME280;44428;45.630;13.786;2022-12-07T04:41:46;101066.63;;;7.60;80.57
58658;BME280;44428;45.630;13.786;2022-12-07T04:44:13;101068.16;;;7.64;80.76
58658;BME280;44428;45.630;13.786;2022-12-07T04:46:40;101061.03;;;7.66;80.38
58658;BME280;44428;45.630;13.786;2022-12-07T04:49:06;101064.41;;;7.68;81.11
58658;BME280;44428;45.630;13.786;2022-12-07T04:51:32;101060.22;;;7.82;79.25
58658;BME280;44428;45.630;13.786;2022-12-07T04:53:58;101065.31;;;7.85;79.43
58658;BME280;44428;45.630;13.786;2022-12-07T04:56:25;101054.63;;;7.88;79.57
58658;BME280;44428;45.630;13.786;2022-12-07T04:58:52;101061.25;;;7.95;78.54
58658;BME280;44428;45.630;13.786;2022-12-07T05:01:18;101058.38;;;7.99;78.82
58658;BME280;44428;45.630;13.786;2022-12-07T05:03:44;101050.41;;;8.01;78.78
58658;BME280;44428;45.630;13.786;2022-12-07T05:06:11;101057.72;;;7.96;78.50
58658;BME280;44428;45.630;13.786;2022-12-07T05:08:38;101053.69;;;7.89;79.08
58658;BME280;44428;45.630;13.786;2022-12-07T05:11:05;101060.06;;;7.85;79.54
58658;BME280;44428;45.630;13.786;2022-12-07T05:13:32;101056.50;;;7.86;79.77
58658;BME280;44428;45.630;13.786;2022-12-07T05:15:58;101056.66;;;7.83;79.78
58658;BME280;44428;45.630;13.786;2022-12-07T05:18:24;101053.06;;;7.84;79.94
58658;BME280;44428;45.630;13.786;2022-12-07T05:20:50;101056.50;;;7.86;79.68
58658;BME280;44428;45.630;13.786;2022-12-07T05:23:17;101065.31;;;7.85;80.05
58658;BME280;44428;45.630;13.786;2022-12-07T05:25:43;101065.47;;;7.82;79.48
58658;BME280;44428;45.630;13.786;2022-12-07T05:28:10;101061.22;;;7.79;80.08
58658;BME280;44428;45.630;13.786;2022-12-07T05:30:36;101060.56;;;7.75;79.22
58658;BME280;44428;45.630;13.786;2022-12-07T05:33:02;101059.59;;;7.76;79.77
58658;BME280;44428;45.630;13.786;2022-12-07T05:35:28;101062.41;;;7.73;80.08
58658;BME280;44428;45.630;13.786;2022-12-07T05:37:55;101057.31;;;7.70;80.64
58658;BME280;44428;45.630;13.786;2022-12-07T05:40:21;101055.44;;;7.72;81.25
58658;BME280;44428;45.630;13.786;2022-12-07T05:42:47;101065.97;;;7.72;81.38
58658;BME280;44428;45.630;13.786;2022-12-07T05:45:12;101054.44;;;7.75;80.12
58658;BME280;44428;45.630;13.786;2022-12-07T05:47:38;101045.59;;;7.76;80.51
58658;BME280;44428;45.630;13.786;2022-12-07T05:50:05;101046.44;;;7.76;80.73
58658;BME280;44428;45.630;13.786;2022-12-07T05:52:31;101048.31;;;7.74;80.93
58658;BME280;44428;45.630;13.786;2022-12-07T05:54:57;101054.88;;;7.83;79.41
58658;BME280;44428;45.630;13.786;2022-12-07T05:57:22;101063.59;;;7.84;79.77
58658;BME280;44428;45.630;13.786;2022-12-07T05:59:48;101059.56;;;7.94;78.50
58658;BME280;44428;45.630;13.786;2022-12-07T06:02:15;101048.53;;;7.87;78.57
58658;BME280;44428;45.630;13.786;2022-12-07T06:04:46;101052.44;;;7.96;77.88
58658;BME280;44428;45.630;13.786;2022-12-07T06:07:15;101062.19;;;7.94;78.78
58658;BME280;44428;45.630;13.786;2022-12-07T06:09:41;101063.31;;;7.90;77.92
58658;BME280;44428;45.630;13.786;2022-12-07T06:12:10;101067.34;;;7.79;78.47
58658;BME280;44428;45.630;13.786;2022-12-07T06:14:54;101069.66;;;7.68;80.00
58658;BME280;44428;45.630;13.786;2022-12-07T06:17:20;101066.78;;;7.57;79.83
58658;BME280;44428;45.630;13.786;2022-12-07T06:19:46;101058.25;;;7.52;79.86
58658;BME280;44428;45.630;13.786;2022-12-07T06:22:12;101068.78;;;7.52;80.09
58658;BME280;44428;45.630;13.786;2022-12-07T06:24:38;101066.94;;;7.54;79.69
58658;BME280;44428;45.630;13.786;2022-12-07T06:27:05;101063.16;;;7.42;79.82
58658;BME280;44428;45.630;13.786;2022-12-07T06:29:31;101063.16;;;7.42;79.92
58658;BME280;44428;45.630;13.786;2022-12-07T06:31:57;101067.56;;;7.42;79.75
58658;BME280;44428;45.630;13.786;2022-12-07T06:34:24;101072.19;;;7.37;80.16
58658;BME280;44428;45.630;13.786;2022-12-07T06:36:50;101078.56;;;7.32;80.53
58658;BME280;44428;45.630;13.786;2022-12-07T06:39:22;101080.41;;;7.30;80.63
58658;BME280;44428;45.630;13.786;2022-12-07T06:41:48;101073.13;;;7.36;80.13
58658;BME280;44428;45.630;13.786;2022-12-07T06:44:14;101066.31;;;7.31;80.10
58658;BME280;44428;45.630;13.786;2022-12-07T06:46:39;101072.25;;;7.35;80.50
58658;BME280;44428;45.630;13.786;2022-12-07T06:49:05;101069.72;;;7.33;80.17
58658;BME280;44428;45.630;13.786;2022-12-07T06:51:33;101076.69;;;7.34;80.33
58658;BME280;44428;45.630;13.786;2022-12-07T06:54:00;101079.94;;;7.40;80.15
58658;BME280;44428;45.630;13.786;2022-12-07T06:56:26;101078.09;;;7.42;80.38
58658;BME280;44428;45.630;13.786;2022-12-07T06:58:52;101087.41;;;7.47;79.37
58658;BME280;44428;45.630;13.786;2022-12-07T07:01:18;101093.38;;;7.51;79.66
58658;BME280;44428;45.630;13.786;2022-12-07T07:03:45;101096.44;;;7.59;79.34
58658;BME280;44428;45.630;13.786;2022-12-07T07:06:12;101104.81;;;7.67;78.69
58658;BME280;44428;45.630;13.786;2022-12-07T07:08:38;101093.63;;;7.79;78.62
58658;BME280;44428;45.630;13.786;2022-12-07T07:11:05;101095.16;;;7.84;78.25
58658;BME280;44428;45.630;13.786;2022-12-07T07:13:32;101087.25;;;8.01;77.64
58658;BME280;44428;45.630;13.786;2022-12-07T07:15:58;101087.06;;;8.04;77.40
58658;BME280;44428;45.630;13.786;2022-12-07T07:18:24;101091.50;;;8.19;76.37
58658;BME280;44428;45.630;13.786;2022-12-07T07:20:51;101089.50;;;8.24;75.74
58658;BME280;44428;45.630;13.786;2022-12-07T07:23:17;101092.91;;;8.26;76.00
58658;BME280;44428;45.630;13.786;2022-12-07T07:25:44;101089.31;;;8.27;75.87
58658;BME280;44428;45.630;13.786;2022-12-07T07:28:10;101093.94;;;8.40;75.28
58658;BME280;44428;45.630;13.786;2022-12-07T07:30:35;101095.47;;;8.44;74.24
58658;BME280;44428;45.630;13.786;2022-12-07T07:33:02;101098.88;;;8.46;74.73
58658;BME280;44428;45.630;13.786;2022-12-07T07:35:29;101095.28;;;8.47;74.90
58658;BME280;44428;45.630;13.786;2022-12-07T07:37:55;101103.81;;;8.52;74.73
58658;BME280;44428;45.630;13.786;2022-12-07T07:40:21;101094.31;;;8.65;74.85
58658;BME280;44428;45.630;13.786;2022-12-07T07:42:48;101096.06;;;8.81;73.76
58658;BME280;44428;45.630;13.786;2022-12-07T07:45:15;101099.03;;;8.90;73.15
58658;BME280;44428;45.630;13.786;2022-12-07T07:47:40;101102.91;;;8.99;73.79
58658;BME280;44428;45.630;13.786;2022-12-07T07:50:06;101104.25;;;9.06;72.62
58658;BME280;44428;45.630;13.786;2022-12-07T07:52:32;101097.78;;;9.12;72.70
58658;BME280;44428;45.630;13.786;2022-12-07T07:54:58;101101.84;;;9.17;72.51
58658;BME280;44428;45.630;13.786;2022-12-07T07:57:23;101090.84;;;9.25;71.43
58658;BME280;44428;45.630;13.786;2022-12-07T07:59:49;101096.06;;;9.27;71.58
58658;BME280;44428;45.630;13.786;2022-12-07T08:02:17;101094.88;;;9.16;72.11
58658;BME280;44428;45.630;13.786;2022-12-07T08:04:44;101098.03;;;9.07;72.48
58658;BME280;44428;45.630;13.786;2022-12-07T08:07:12;101107.50;;;8.95;72.30
58658;BME280;44428;45.630;13.786;2022-12-07T08:09:38;101107.19;;;8.86;72.88
58658;BME280;44428;45.630;13.786;2022-12-07T08:12:04;101103.63;;;8.87;73.39
58658;BME280;44428;45.630;13.786;2022-12-07T08:14:30;101109.47;;;8.92;72.53
58658;BME280;44428;45.630;13.786;2022-12-07T08:16:56;101110.06;;;8.97;73.47
58658;BME280;44428;45.630;13.786;2022-12-07T08:19:22;101103.91;;;9.12;73.21
58658;BME280;44428;45.630;13.786;2022-12-07T08:21:48;101104.00;;;9.41;71.49
58658;BME280;44428;45.630;13.786;2022-12-07T08:24:14;101103.66;;;9.76;70.15
58658;BME280;44428;45.630;13.786;2022-12-07T08:26:40;101110.09;;;10.00;69.69
58658;BME280;44428;45.630;13.786;2022-12-07T08:29:06;101118.22;;;10.26;68.48
58658;BME280;44428;45.630;13.786;2022-12-07T08:31:32;101105.94;;;10.53;67.44
58658;BME280;44428;45.630;13.786;2022-12-07T08:33:58;101109.06;;;10.73;66.52
58658;BME280;44428;45.630;13.786;2022-12-07T08:36:24;101104.94;;;10.69;66.29
58658;BME280;44428;45.630;13.786;2022-12-07T08:38:50;101121.06;;;10.78;66.18
58658;BME280;44428;45.630;13.786;2022-12-07T08:41:16;101117.00;;;10.73;65.92
58658;BME280;44428;45.630;13.786;2022-12-07T08:43:42;101115.72;;;10.66;65.61
58658;BME280;44428;45.630;13.786;2022-12-07T08:49:02;101126.97;;;10.82;65.37
58658;BME280;44428;45.630;13.786;2022-12-07T08:51:28;101124.91;;;10.87;64.81
58658;BME280;44428;45.630;13.786;2022-12-07T08:53:55;101120.91;;;10.94;65.07
58658;BME280;44428;45.630;13.786;2022-12-07T08:56:23;101125.97;;;10.97;65.00
58658;BME280;44428;45.630;13.786;2022-12-07T08:58:50;101127.91;;;10.95;65.59
58658;BME280;44428;45.630;13.786;2022-12-07T09:01:15;101129.19;;;11.03;65.80
58658;BME280;44428;45.630;13.786;2022-12-07T09:03:41;101119.28;;;11.19;64.86
58658;BME280;44428;45.630;13.786;2022-12-07T09:06:07;101120.69;;;11.37;64.23
58658;BME280;44428;45.630;13.786;2022-12-07T09:08:37;101120.84;;;11.49;63.71
58658;BME280;44428;45.630;13.786;2022-12-07T09:11:04;101122.97;;;11.69;63.29
58658;BME280;44428;45.630;13.786;2022-12-07T09:13:29;101120.25;;;12.09;62.11
58658;BME280;44428;45.630;13.786;2022-12-07T09:15:55;101125.00;;;12.04;62.09
58658;BME280;44428;45.630;13.786;2022-12-07T09:18:21;101126.63;;;11.94;61.28
58658;BME280;44428;45.630;13.786;2022-12-07T09:20:47;101124.72;;;11.96;62.23
58658;BME280;44428;45.630;13.786;2022-12-07T09:23:12;101132.31;;;12.00;62.79
58658;BME280;44428;45.630;13.786;2022-12-07T09:25:38;101124.06;;;12.05;61.71
58658;BME280;44428;45.630;13.786;2022-12-07T09:28:04;101125.81;;;13.27;59.20
58658;BME280;44428;45.630;13.786;2022-12-07T09:30:29;101125.41;;;14.91;53.59
58658;BME280;44428;45.630;13.786;2022-12-07T09:32:56;101120.03;;;15.97;49.68
58658;BME280;44428;45.630;13.786;2022-12-07T09:35:23;101123.69;;;17.74;45.36
58658;BME280;44428;45.630;13.786;2022-12-07T09:37:49;101119.34;;;15.95;48.40
58658;BME280;44428;45.630;13.786;2022-12-07T09:40:16;101123.41;;;14.83;50.93
58658;BME280;44428;45.630;13.786;2022-12-07T09:42:44;101121.59;;;15.16;50.80
58658;BME280;44428;45.630;13.786;2022-12-07T09:45:34;101116.28;;;18.70;44.32
58658;BME280;44428;45.630;13.786;2022-12-07T09:48:02;101101.63;;;20.99;39.49
58658;BME280;44428;45.630;13.786;2022-12-07T09:50:29;101101.97;;;22.96;34.84
58658;BME280;44428;45.630;13.786;2022-12-07T09:53:09;101094.09;;;24.30;31.87
58658;BME280;44428;45.630;13.786;2022-12-07T09:55:40;101098.63;;;24.95;31.84
58658;BME280;44428;45.630;13.786;2022-12-07T09:58:23;101096.66;;;25.53;28.77
58658;BME280;44428;45.630;13.786;2022-12-07T10:00:56;101085.50;;;25.13;28.79
58658;BME280;44428;45.630;13.786;2022-12-07T10:03:22;101084.41;;;25.29;28.91
58658;BME280;44428;45.630;13.786;2022-12-07T10:05:50;101074.13;;;25.46;27.92
58658;BME280;44428;45.630;13.786;2022-12-07T10:08:16;101075.19;;;25.80;27.45
58658;BME280;44428;45.630;13.786;2022-12-07T10:10:43;101072.25;;;26.10;27.33
58658;BME280;44428;45.630;13.786;2022-12-07T10:13:15;101070.91;;;26.40;26.60
58658;BME280;44428;45.630;13.786;2022-12-07T10:15:55;101077.91;;;26.15;26.39
58658;BME280;44428;45.630;13.786;2022-12-07T10:23:41;101074.00;;;26.99;25.44
58658;BME280;44428;45.630;13.786;2022-12-07T10:28:53;101063.13;;;27.92;24.53
58658;BME280;44428;45.630;13.786;2022-12-07T10:31:21;101057.06;;;27.90;24.18
58658;BME280;44428;45.630;13.786;2022-12-07T10:33:57;101049.53;;;28.43;23.56
58658;BME280;44428;45.630;13.786;2022-12-07T10:36:38;101060.31;;;28.18;23.93
58658;BME280;44428;45.630;13.786;2022-12-07T10:39:15;101047.66;;;28.44;23.28
58658;BME280;44428;45.630;13.786;2022-12-07T10:42:00;101053.88;;;28.06;24.01
58658;BME280;44428;45.630;13.786;2022-12-07T10:44:31;101044.34;;;28.28;23.53
58658;BME280;44428;45.630;13.786;2022-12-07T10:59:03;101044.66;;;26.41;25.29
58658;BME280;44428;45.630;13.786;2022-12-07T11:06:57;101044.75;;;26.54;25.55
58658;BME280;44428;45.630;13.786;2022-12-07T11:33:46;101019.03;;;25.89;25.74
58658;BME280;44428;45.630;13.786;2022-12-07T11:36:33;101017.41;;;26.49;24.97
58658;BME280;44428;45.630;13.786;2022-12-07T11:39:04;101017.25;;;26.77;24.79
58658;BME280;44428;45.630;13.786;2022-12-07T11:41:38;101011.38;;;26.54;24.95
58658;BME280;44428;45.630;13.786;2022-12-07T11:52:04;101006.13;;;25.84;25.71
58658;BME280;44428;45.630;13.786;2022-12-07T11:54:41;100987.09;;;25.36;26.44
58658;BME280;44428;45.630;13.786;2022-12-07T11:57:40;100981.84;;;25.06;26.55
58658;BME280;44428;45.630;13.786;2022-12-07T12:00:15;100977.28;;;25.35;26.26
58658;BME280;44428;45.630;13.786;2022-12-07T12:02:49;100971.16;;;25.54;25.92
58658;BME280;44428;45.630;13.786;2022-12-07T12:05:21;100970.53;;;25.87;25.78
58658;BME280;44428;45.630;13.786;2022-12-07T12:07:55;100967.03;;;26.00;25.58
58658;BME280;44428;45.630;13.786;2022-12-07T12:19:38;100960.50;;;25.46;25.32
58658;BME280;44428;45.630;13.786;2022-12-07T12:22:17;100968.06;;;25.01;26.31
58658;BME280;44428;45.630;13.786;2022-12-07T12:24:47;100961.66;;;24.81;26.62
58658;BME280;44428;45.630;13.786;2022-12-07T12:27:25;100959.06;;;25.16;25.88
58658;BME280;44428;45.630;13.786;2022-12-07T12:29:54;100964.09;;;25.19;25.94
58658;BME280;44428;45.630;13.786;2022-12-07T12:32:23;100959.03;;;24.66;26.33
58658;BME280;44428;45.630;13.786;2022-12-07T12:42:49;100952.53;;;23.66;28.02
58658;BME280;44428;45.630;13.786;2022-12-07T12:45:27;100960.22;;;24.20;27.72
58658;BME280;44428;45.630;13.786;2022-12-07T12:48:38;100961.53;;;24.25;27.51
58658;BME280;44428;45.630;13.786;2022-12-07T12:51:38;100957.72;;;23.83;27.97
58658;BME280;44428;45.630;13.786;2022-12-07T12:54:11;100962.50;;;24.02;27.57
58658;BME280;44428;45.630;13.786;2022-12-07T12:59:33;100957.56;;;23.69;28.30
58658;BME280;44428;45.630;13.786;2022-12-07T13:02:25;100961.25;;;23.68;28.36
58658;BME280;44428;45.630;13.786;2022-12-07T13:07:54;100954.28;;;23.74;28.06
58658;BME280;44428;45.630;13.786;2022-12-07T13:29:36;100958.25;;;20.84;32.39
58658;BME280;44428;45.630;13.786;2022-12-07T13:32:02;100960.56;;;21.12;31.91
58658;BME280;44428;45.630;13.786;2022-12-07T13:34:35;100960.09;;;20.43;32.44
58658;BME280;44428;45.630;13.786;2022-12-07T13:37:12;100967.78;;;18.74;35.47
58658;BME280;44428;45.630;13.786;2022-12-07T13:44:52;100968.09;;;16.86;39.54
58658;BME280;44428;45.630;13.786;2022-12-07T13:52:47;100948.41;;;17.81;37.65
58658;BME280;44428;45.630;13.786;2022-12-07T13:55:16;100952.25;;;17.97;37.42
58658;BME280;44428;45.630;13.786;2022-12-07T13:57:44;100953.53;;;17.65;38.16
58658;BME280;44428;45.630;13.786;2022-12-07T14:00:18;100953.34;;;17.39;39.08
58658;BME280;44428;45.630;13.786;2022-12-07T14:05:30;100948.91;;;17.20;38.93
58658;BME280;44428;45.630;13.786;2022-12-07T14:13:37;100957.97;;;16.41;40.68
58658;BME280;44428;45.630;13.786;2022-12-07T14:16:32;100954.31;;;16.23;41.35
58658;BME280;44428;45.630;13.786;2022-12-07T14:18:59;100954.41;;;16.12;41.60
58658;BME280;44428;45.630;13.786;2022-12-07T14:21:28;100947.94;;;15.95;41.88
58658;BME280;44428;45.630;13.786;2022-12-07T14:24:15;100957.59;;;15.86;42.16
58658;BME280;44428;45.630;13.786;2022-12-07T14:26:45;100960.53;;;15.52;42.74
58658;BME280;44428;45.630;13.786;2022-12-07T14:31:57;100972.53;;;14.95;44.38
58658;BME280;44428;45.630;13.786;2022-12-07T14:34:24;100970.97;;;14.72;44.94
58658;BME280;44428;45.630;13.786;2022-12-07T14:36:50;100971.28;;;14.46;45.62
58658;BME280;44428;45.630;13.786;2022-12-07T14:39:15;100975.00;;;14.23;46.16
58658;BME280;44428;45.630;13.786;2022-12-07T14:41:41;100971.78;;;13.96;46.97
58658;BME280;44428;45.630;13.786;2022-12-07T14:44:17;100978.91;;;13.73;47.57
58658;BME280;44428;45.630;13.786;2022-12-07T14:46:43;100978.56;;;13.56;47.71
58658;BME280;44428;45.630;13.786;2022-12-07T14:49:09;100979.59;;;13.19;48.76
58658;BME280;44428;45.630;13.786;2022-12-07T14:51:37;100976.84;;;12.86;50.16
58658;BME280;44428;45.630;13.786;2022-12-07T14:54:06;100982.22;;;12.73;50.87
58658;BME280;44428;45.630;13.786;2022-12-07T14:56:35;100982.63;;;12.31;51.64
58658;BME280;44428;45.630;13.786;2022-12-07T14:59:00;100981.72;;;11.96;52.63
58658;BME280;44428;45.630;13.786;2022-12-07T15:01:26;100981.00;;;11.42;54.35
58658;BME280;44428;45.630;13.786;2022-12-07T15:03:51;100980.69;;;11.09;55.64
58658;BME280;44428;45.630;13.786;2022-12-07T15:06:18;100997.50;;;10.68;57.24
58658;BME280;44428;45.630;13.786;2022-12-07T15:08:44;100980.31;;;10.35;58.39
58658;BME280;44428;45.630;13.786;2022-12-07T15:11:17;100992.94;;;10.16;59.46
58658;BME280;44428;45.630;13.786;2022-12-07T15:13:43;100991.28;;;10.00;60.08
58658;BME280;44428;45.630;13.786;2022-12-07T15:16:29;100993.69;;;9.76;61.09
58658;BME280;44428;45.630;13.786;2022-12-07T15:18:55;100994.91;;;9.71;61.58
58658;BME280;44428;45.630;13.786;2022-12-07T15:21:21;100991.34;;;9.57;62.12
58658;BME280;44428;45.630;13.786;2022-12-07T15:23:47;100992.47;;;9.39;63.18
58658;BME280;44428;45.630;13.786;2022-12-07T15:26:13;101000.38;;;9.39;63.39
58658;BME280;44428;45.630;13.786;2022-12-07T15:28:40;100999.78;;;9.20;64.65
58658;BME280;44428;45.630;13.786;2022-12-07T15:31:16;100996.59;;;9.14;65.14
58658;BME280;44428;45.630;13.786;2022-12-07T15:33:43;100993.66;;;9.19;64.43
58658;BME280;44428;45.630;13.786;2022-12-07T15:36:18;101003.84;;;9.11;64.85
58658;BME280;44428;45.630;13.786;2022-12-07T15:38:44;101003.13;;;9.07;65.22
58658;BME280;44428;45.630;13.786;2022-12-07T15:41:09;101000.69;;;9.04;65.57
58658;BME280;44428;45.630;13.786;2022-12-07T15:43:36;101007.69;;;9.05;64.92
58658;BME280;44428;45.630;13.786;2022-12-07T15:46:20;101009.25;;;8.93;65.90
58658;BME280;44428;45.630;13.786;2022-12-07T15:48:46;101008.59;;;8.90;66.39